首页
METAR-TAF:

METAR-TAF

机场 :

普拉, 克罗地亚

纬度: 44-54N, 经度: 013-55E, 海拔: 63米

当前天气观测

该预报发布于33分钟前的21:30 UTC
风速12节,风向西南
温度 10°C
湿度 62%
气压 1004 hPa
能见度10公里或以上
少量云层高于3500英尺
多云层高于5500英尺

METAR: LDPL 272130Z 22012KT 9999 FEW035 BKN055 10/03 Q1004 NOSIG

时间: 23:03 (22:03 UTC)

预报

该预报发布于4小时和38分钟前的17:25 UTC
预报有效从27日的 18点(UTC)到 28日的 18点(UTC)
风速2节,风向多变
能见度10公里或以上
1500米以下无云,无积雨云
成为
从 27日的 18点(UTC)到 27日的 20点(UTC)
风速15节,风向西南
几率 30% :
短暂存在
从 27日的 19点(UTC)到 28日的 03点(UTC)
风速15节,风向西南,有时为25节阵风
几率 30% :
短暂存在
从 27日的 21点(UTC)到 28日的 01点(UTC)
少量云层高于3000英尺, 积雨云.
多云层高于3500英尺
雷暴
成为
从 28日的 01点(UTC)到 28日的 03点(UTC)
风速12节,风向西北
成为
从 28日的 13点(UTC)到 28日的 15点(UTC)
风速2节,风向多变

TAF: LDPL 271725Z 2718/2818 VRB02KT CAVOK TX14/2813Z TN04/2806Z BECMG 2718/2720 23015KT PROB30 TEMPO 2719/2803 23015G25KT RA PROB30 TEMPO 2721/2801 TS FEW030CB BKN035 BECMG 2801/2803 32012KT BECMG 2813/2815 VRB02KT

超过4000个机场的气象观测和天气预报(METAR&TAF报告)。

可查询的气象台以黄色和红色小点在地图上表示。

将鼠标移到小点上方,可查看气象台名称。

然后点击查看天气观测和预报。

如需切换地图:点击带黑十字的绿色按钮放大地图;点击带横线的绿色按钮缩小地图;或者点击绿色箭头查看邻近地区的地图。


METAR-TAF: